sensor_id;sensor_type;location;lat;lon;timestamp;pressure;altitude;pressure_sealevel;temperature
20092;BMP180;10205;49.678;6.560;2024-01-25T00:02:03;101233.00;;;13.00
20092;BMP180;10205;49.678;6.560;2024-01-25T00:04:31;101230.00;;;13.00
20092;BMP180;10205;49.678;6.560;2024-01-25T00:06:59;101246.00;;;13.00
20092;BMP180;10205;49.678;6.560;2024-01-25T00:09:26;101235.00;;;13.00
20092;BMP180;10205;49.678;6.560;2024-01-25T00:11:53;101232.00;;;13.00
20092;BMP180;10205;49.678;6.560;2024-01-25T00:14:20;101221.00;;;13.00
20092;BMP180;10205;49.678;6.560;2024-01-25T00:16:47;101226.00;;;13.00
20092;BMP180;10205;49.678;6.560;2024-01-25T00:19:15;101221.00;;;13.00
20092;BMP180;10205;49.678;6.560;2024-01-25T00:21:42;101225.00;;;13.00
20092;BMP180;10205;49.678;6.560;2024-01-25T00:24:12;101220.00;;;13.00
20092;BMP180;10205;49.678;6.560;2024-01-25T00:26:39;101209.00;;;13.00
20092;BMP180;10205;49.678;6.560;2024-01-25T00:29:08;101222.00;;;13.00
20092;BMP180;10205;49.678;6.560;2024-01-25T00:31:35;101225.00;;;13.00
20092;BMP180;10205;49.678;6.560;2024-01-25T00:34:03;101228.00;;;13.00
20092;BMP180;10205;49.678;6.560;2024-01-25T00:36:30;101234.00;;;13.00
20092;BMP180;10205;49.678;6.560;2024-01-25T00:38:58;101226.00;;;13.00
20092;BMP180;10205;49.678;6.560;2024-01-25T00:41:29;101226.00;;;13.00
20092;BMP180;10205;49.678;6.560;2024-01-25T00:43:59;101222.00;;;13.00
20092;BMP180;10205;49.678;6.560;2024-01-25T00:46:27;101215.00;;;12.90
20092;BMP180;10205;49.678;6.560;2024-01-25T00:48:54;101226.00;;;12.90
20092;BMP180;10205;49.678;6.560;2024-01-25T00:51:23;101212.00;;;12.90
20092;BMP180;10205;49.678;6.560;2024-01-25T00:53:50;101208.00;;;12.90
20092;BMP180;10205;49.678;6.560;2024-01-25T00:56:18;101216.00;;;12.90
20092;BMP180;10205;49.678;6.560;2024-01-25T00:58:48;101213.00;;;12.90
20092;BMP180;10205;49.678;6.560;2024-01-25T01:01:16;101217.00;;;12.80
20092;BMP180;10205;49.678;6.560;2024-01-25T01:03:45;101210.00;;;12.80
20092;BMP180;10205;49.678;6.560;2024-01-25T01:06:19;101208.00;;;12.90
20092;BMP180;10205;49.678;6.560;2024-01-25T01:08:47;101203.00;;;12.90
20092;BMP180;10205;49.678;6.560;2024-01-25T01:11:14;101194.00;;;12.80
20092;BMP180;10205;49.678;6.560;2024-01-25T01:13:41;101201.00;;;12.90
20092;BMP180;10205;49.678;6.560;2024-01-25T01:16:10;101204.00;;;12.90
20092;BMP180;10205;49.678;6.560;2024-01-25T01:18:37;101208.00;;;12.90
20092;BMP180;10205;49.678;6.560;2024-01-25T01:21:05;101196.00;;;12.90
20092;BMP180;10205;49.678;6.560;2024-01-25T01:23:32;101206.00;;;12.80
20092;BMP180;10205;49.678;6.560;2024-01-25T01:25:59;101209.00;;;12.90
20092;BMP180;10205;49.678;6.560;2024-01-25T01:28:26;101236.00;;;12.80
20092;BMP180;10205;49.678;6.560;2024-01-25T01:30:53;101218.00;;;12.80
20092;BMP180;10205;49.678;6.560;2024-01-25T01:33:21;101212.00;;;12.90
20092;BMP180;10205;49.678;6.560;2024-01-25T01:35:48;101209.00;;;12.90
20092;BMP180;10205;49.678;6.560;2024-01-25T01:38:15;101222.00;;;12.80
20092;BMP180;10205;49.678;6.560;2024-01-25T01:40:44;101230.00;;;12.80
20092;BMP180;10205;49.678;6.560;2024-01-25T01:43:18;101249.00;;;12.80
20092;BMP180;10205;49.678;6.560;2024-01-25T01:45:46;101242.00;;;12.80
20092;BMP180;10205;49.678;6.560;2024-01-25T01:48:13;101243.00;;;12.80
20092;BMP180;10205;49.678;6.560;2024-01-25T01:50:44;101237.00;;;12.80
20092;BMP180;10205;49.678;6.560;2024-01-25T01:53:11;101230.00;;;12.80
20092;BMP180;10205;49.678;6.560;2024-01-25T01:55:40;101210.00;;;12.80
20092;BMP180;10205;49.678;6.560;2024-01-25T01:58:07;101233.00;;;12.70
20092;BMP180;10205;49.678;6.560;2024-01-25T02:00:37;101235.00;;;12.70
20092;BMP180;10205;49.678;6.560;2024-01-25T02:03:06;101224.00;;;12.70
20092;BMP180;10205;49.678;6.560;2024-01-25T02:05:33;101228.00;;;12.70
20092;BMP180;10205;49.678;6.560;2024-01-25T02:08:03;101227.00;;;12.70
20092;BMP180;10205;49.678;6.560;2024-01-25T02:10:31;101225.00;;;12.70
20092;BMP180;10205;49.678;6.560;2024-01-25T02:12:58;101224.00;;;12.60
20092;BMP180;10205;49.678;6.560;2024-01-25T02:15:25;101224.00;;;12.60
20092;BMP180;10205;49.678;6.560;2024-01-25T02:17:53;101221.00;;;12.60
20092;BMP180;10205;49.678;6.560;2024-01-25T02:20:20;101218.00;;;12.60
20092;BMP180;10205;49.678;6.560;2024-01-25T02:22:49;101220.00;;;12.60
20092;BMP180;10205;49.678;6.560;2024-01-25T02:25:16;101237.00;;;12.60
20092;BMP180;10205;49.678;6.560;2024-01-25T02:27:43;101249.00;;;12.50
20092;BMP180;10205;49.678;6.560;2024-01-25T02:30:11;101248.00;;;12.50
20092;BMP180;10205;49.678;6.560;2024-01-25T02:32:38;101249.00;;;12.50
20092;BMP180;10205;49.678;6.560;2024-01-25T02:35:06;101249.00;;;12.50
20092;BMP180;10205;49.678;6.560;2024-01-25T02:37:33;101262.00;;;12.50
20092;BMP180;10205;49.678;6.560;2024-01-25T02:40:01;101253.00;;;12.50
20092;BMP180;10205;49.678;6.560;2024-01-25T02:42:29;101252.00;;;12.40
20092;BMP180;10205;49.678;6.560;2024-01-25T02:44:56;101250.00;;;12.40
20092;BMP180;10205;49.678;6.560;2024-01-25T02:47:23;101253.00;;;12.40
20092;BMP180;10205;49.678;6.560;2024-01-25T02:49:50;101257.00;;;12.40
20092;BMP180;10205;49.678;6.560;2024-01-25T02:52:17;101266.00;;;12.40
20092;BMP180;10205;49.678;6.560;2024-01-25T02:54:44;101268.00;;;12.30
20092;BMP180;10205;49.678;6.560;2024-01-25T02:57:13;101279.00;;;12.30
20092;BMP180;10205;49.678;6.560;2024-01-25T02:59:40;101263.00;;;12.20
20092;BMP180;10205;49.678;6.560;2024-01-25T03:02:07;101251.00;;;12.20
20092;BMP180;10205;49.678;6.560;2024-01-25T03:04:34;101253.00;;;12.20
20092;BMP180;10205;49.678;6.560;2024-01-25T03:07:01;101273.00;;;12.20
20092;BMP180;10205;49.678;6.560;2024-01-25T03:09:28;101273.00;;;12.20
20092;BMP180;10205;49.678;6.560;2024-01-25T03:11:55;101257.00;;;12.10
20092;BMP180;10205;49.678;6.560;2024-01-25T03:14:23;101267.00;;;12.10
20092;BMP180;10205;49.678;6.560;2024-01-25T03:16:50;101261.00;;;12.10
20092;BMP180;10205;49.678;6.560;2024-01-25T03:19:18;101249.00;;;12.10
20092;BMP180;10205;49.678;6.560;2024-01-25T03:21:45;101247.00;;;12.00
20092;BMP180;10205;49.678;6.560;2024-01-25T03:24:12;101246.00;;;12.00
20092;BMP180;10205;49.678;6.560;2024-01-25T03:26:39;101243.00;;;12.00
20092;BMP180;10205;49.678;6.560;2024-01-25T03:29:06;101245.00;;;12.00
20092;BMP180;10205;49.678;6.560;2024-01-25T03:31:35;101232.00;;;12.00
20092;BMP180;10205;49.678;6.560;2024-01-25T03:34:03;101236.00;;;12.00
20092;BMP180;10205;49.678;6.560;2024-01-25T03:36:30;101240.00;;;12.00
20092;BMP180;10205;49.678;6.560;2024-01-25T03:38:58;101236.00;;;11.90
20092;BMP180;10205;49.678;6.560;2024-01-25T03:41:25;101237.00;;;11.90
20092;BMP180;10205;49.678;6.560;2024-01-25T03:43:54;101231.00;;;11.90
20092;BMP180;10205;49.678;6.560;2024-01-25T03:46:21;101233.00;;;11.90
20092;BMP180;10205;49.678;6.560;2024-01-25T03:48:50;101235.00;;;11.90
20092;BMP180;10205;49.678;6.560;2024-01-25T03:51:17;101231.00;;;11.90
20092;BMP180;10205;49.678;6.560;2024-01-25T03:53:45;101235.00;;;11.80
20092;BMP180;10205;49.678;6.560;2024-01-25T03:56:13;101226.00;;;11.80
20092;BMP180;10205;49.678;6.560;2024-01-25T03:58:43;101247.00;;;11.80
20092;BMP180;10205;49.678;6.560;2024-01-25T04:01:10;101249.00;;;11.80
20092;BMP180;10205;49.678;6.560;2024-01-25T04:03:37;101236.00;;;11.70
20092;BMP180;10205;49.678;6.560;2024-01-25T04:06:06;101233.00;;;11.70
20092;BMP180;10205;49.678;6.560;2024-01-25T04:08:33;101237.00;;;11.70
20092;BMP180;10205;49.678;6.560;2024-01-25T04:11:00;101236.00;;;11.60
20092;BMP180;10205;49.678;6.560;2024-01-25T04:13:27;101228.00;;;11.60
20092;BMP180;10205;49.678;6.560;2024-01-25T04:15:54;101229.00;;;11.60
20092;BMP180;10205;49.678;6.560;2024-01-25T04:18:21;101225.00;;;11.60
20092;BMP180;10205;49.678;6.560;2024-01-25T04:20:48;101232.00;;;11.60
20092;BMP180;10205;49.678;6.560;2024-01-25T04:23:18;101227.00;;;11.50
20092;BMP180;10205;49.678;6.560;2024-01-25T04:25:45;101254.00;;;11.50
20092;BMP180;10205;49.678;6.560;2024-01-25T04:28:12;101231.00;;;11.50
20092;BMP180;10205;49.678;6.560;2024-01-25T04:30:39;101242.00;;;11.40
20092;BMP180;10205;49.678;6.560;2024-01-25T04:33:06;101247.00;;;11.40
20092;BMP180;10205;49.678;6.560;2024-01-25T04:35:34;101253.00;;;11.30
20092;BMP180;10205;49.678;6.560;2024-01-25T04:38:01;101250.00;;;11.30
20092;BMP180;10205;49.678;6.560;2024-01-25T04:40:29;101243.00;;;11.30
20092;BMP180;10205;49.678;6.560;2024-01-25T04:42:56;101253.00;;;11.20
20092;BMP180;10205;49.678;6.560;2024-01-25T04:45:24;101272.00;;;11.20
20092;BMP180;10205;49.678;6.560;2024-01-25T04:47:51;101267.00;;;11.20
20092;BMP180;10205;49.678;6.560;2024-01-25T04:50:18;101260.00;;;11.20
20092;BMP180;10205;49.678;6.560;2024-01-25T04:52:45;101256.00;;;11.20
20092;BMP180;10205;49.678;6.560;2024-01-25T04:55:12;101267.00;;;11.20
20092;BMP180;10205;49.678;6.560;2024-01-25T04:57:41;101269.00;;;11.20
20092;BMP180;10205;49.678;6.560;2024-01-25T05:00:10;101270.00;;;11.10
20092;BMP180;10205;49.678;6.560;2024-01-25T05:02:38;101262.00;;;11.10
20092;BMP180;10205;49.678;6.560;2024-01-25T05:05:05;101270.00;;;11.10
20092;BMP180;10205;49.678;6.560;2024-01-25T05:07:32;101278.00;;;11.10
20092;BMP180;10205;49.678;6.560;2024-01-25T05:09:59;101276.00;;;11.10
20092;BMP180;10205;49.678;6.560;2024-01-25T05:12:26;101296.00;;;11.10
20092;BMP180;10205;49.678;6.560;2024-01-25T05:14:54;101291.00;;;11.00
20092;BMP180;10205;49.678;6.560;2024-01-25T05:17:21;101289.00;;;11.00
20092;BMP180;10205;49.678;6.560;2024-01-25T05:19:49;101281.00;;;11.00
20092;BMP180;10205;49.678;6.560;2024-01-25T05:22:16;101288.00;;;11.00
20092;BMP180;10205;49.678;6.560;2024-01-25T05:24:43;101290.00;;;10.90
20092;BMP180;10205;49.678;6.560;2024-01-25T05:27:12;101292.00;;;10.90
20092;BMP180;10205;49.678;6.560;2024-01-25T05:29:39;101277.00;;;10.90
20092;BMP180;10205;49.678;6.560;2024-01-25T05:32:07;101292.00;;;10.90
20092;BMP180;10205;49.678;6.560;2024-01-25T05:34:35;101299.00;;;10.90
20092;BMP180;10205;49.678;6.560;2024-01-25T05:37:02;101304.00;;;10.90
20092;BMP180;10205;49.678;6.560;2024-01-25T05:39:29;101289.00;;;10.80
20092;BMP180;10205;49.678;6.560;2024-01-25T05:41:56;101291.00;;;10.80
20092;BMP180;10205;49.678;6.560;2024-01-25T05:44:23;101309.00;;;10.80
20092;BMP180;10205;49.678;6.560;2024-01-25T05:46:50;101298.00;;;10.80
20092;BMP180;10205;49.678;6.560;2024-01-25T05:49:19;101284.00;;;10.80
20092;BMP180;10205;49.678;6.560;2024-01-25T05:51:46;101290.00;;;10.80
20092;BMP180;10205;49.678;6.560;2024-01-25T05:54:13;101304.00;;;10.70
20092;BMP180;10205;49.678;6.560;2024-01-25T05:56:40;101280.00;;;10.70
20092;BMP180;10205;49.678;6.560;2024-01-25T05:59:07;101276.00;;;10.70
20092;BMP180;10205;49.678;6.560;2024-01-25T06:01:34;101282.00;;;10.70
20092;BMP180;10205;49.678;6.560;2024-01-25T06:04:01;101286.00;;;10.70
20092;BMP180;10205;49.678;6.560;2024-01-25T06:06:30;101309.00;;;10.70
20092;BMP180;10205;49.678;6.560;2024-01-25T06:08:57;101291.00;;;10.60
20092;BMP180;10205;49.678;6.560;2024-01-25T06:11:24;101293.00;;;10.60
20092;BMP180;10205;49.678;6.560;2024-01-25T06:13:54;101306.00;;;10.60
20092;BMP180;10205;49.678;6.560;2024-01-25T06:16:22;101297.00;;;10.60
20092;BMP180;10205;49.678;6.560;2024-01-25T06:18:49;101313.00;;;10.60
20092;BMP180;10205;49.678;6.560;2024-01-25T06:21:16;101315.00;;;10.50
20092;BMP180;10205;49.678;6.560;2024-01-25T06:23:44;101316.00;;;10.50
20092;BMP180;10205;49.678;6.560;2024-01-25T06:26:11;101317.00;;;10.50
20092;BMP180;10205;49.678;6.560;2024-01-25T06:28:38;101312.00;;;10.50
20092;BMP180;10205;49.678;6.560;2024-01-25T06:31:06;101318.00;;;10.50
20092;BMP180;10205;49.678;6.560;2024-01-25T06:33:33;101320.00;;;10.50
20092;BMP180;10205;49.678;6.560;2024-01-25T06:36:01;101321.00;;;10.40
20092;BMP180;10205;49.678;6.560;2024-01-25T06:38:28;101327.00;;;10.40
20092;BMP180;10205;49.678;6.560;2024-01-25T06:40:57;101329.00;;;10.40
20092;BMP180;10205;49.678;6.560;2024-01-25T06:43:24;101331.00;;;10.40
20092;BMP180;10205;49.678;6.560;2024-01-25T06:45:51;101326.00;;;10.30
20092;BMP180;10205;49.678;6.560;2024-01-25T06:48:18;101334.00;;;10.30
20092;BMP180;10205;49.678;6.560;2024-01-25T06:50:45;101350.00;;;10.30
20092;BMP180;10205;49.678;6.560;2024-01-25T06:53:13;101330.00;;;10.30
20092;BMP180;10205;49.678;6.560;2024-01-25T06:55:41;101348.00;;;10.30
20092;BMP180;10205;49.678;6.560;2024-01-25T06:58:09;101348.00;;;10.30
20092;BMP180;10205;49.678;6.560;2024-01-25T07:00:36;101350.00;;;10.20
20092;BMP180;10205;49.678;6.560;2024-01-25T07:03:04;101363.00;;;10.20
20092;BMP180;10205;49.678;6.560;2024-01-25T07:05:31;101367.00;;;10.10
20092;BMP180;10205;49.678;6.560;2024-01-25T07:08:01;101375.00;;;10.10
20092;BMP180;10205;49.678;6.560;2024-01-25T07:10:28;101382.00;;;10.00
20092;BMP180;10205;49.678;6.560;2024-01-25T07:12:55;101379.00;;;10.00
20092;BMP180;10205;49.678;6.560;2024-01-25T07:15:23;101373.00;;;9.90
20092;BMP180;10205;49.678;6.560;2024-01-25T07:17:50;101370.00;;;9.90
20092;BMP180;10205;49.678;6.560;2024-01-25T07:20:18;101380.00;;;9.90
20092;BMP180;10205;49.678;6.560;2024-01-25T07:22:45;101377.00;;;9.80
20092;BMP180;10205;49.678;6.560;2024-01-25T07:25:12;101377.00;;;9.80
20092;BMP180;10205;49.678;6.560;2024-01-25T07:27:39;101378.00;;;9.80
20092;BMP180;10205;49.678;6.560;2024-01-25T07:30:08;101376.00;;;9.70
20092;BMP180;10205;49.678;6.560;2024-01-25T07:32:37;101371.00;;;9.70
20092;BMP180;10205;49.678;6.560;2024-01-25T07:35:07;101371.00;;;9.70
20092;BMP180;10205;49.678;6.560;2024-01-25T07:37:35;101383.00;;;9.70
20092;BMP180;10205;49.678;6.560;2024-01-25T07:40:03;101385.00;;;9.70
20092;BMP180;10205;49.678;6.560;2024-01-25T07:42:30;101366.00;;;9.70
20092;BMP180;10205;49.678;6.560;2024-01-25T07:44:58;101367.00;;;9.60
20092;BMP180;10205;49.678;6.560;2024-01-25T07:47:25;101372.00;;;9.60
20092;BMP180;10205;49.678;6.560;2024-01-25T07:49:53;101366.00;;;9.60
20092;BMP180;10205;49.678;6.560;2024-01-25T07:52:20;101377.00;;;9.60
20092;BMP180;10205;49.678;6.560;2024-01-25T07:54:47;101372.00;;;9.60
20092;BMP180;10205;49.678;6.560;2024-01-25T07:57:15;101351.00;;;9.50
20092;BMP180;10205;49.678;6.560;2024-01-25T07:59:42;101360.00;;;9.40
20092;BMP180;10205;49.678;6.560;2024-01-25T08:02:10;101360.00;;;9.40
20092;BMP180;10205;49.678;6.560;2024-01-25T08:04:37;101366.00;;;9.30
20092;BMP180;10205;49.678;6.560;2024-01-25T08:07:05;101361.00;;;9.30
20092;BMP180;10205;49.678;6.560;2024-01-25T08:09:32;101365.00;;;9.30
20092;BMP180;10205;49.678;6.560;2024-01-25T08:11:59;101349.00;;;9.30
20092;BMP180;10205;49.678;6.560;2024-01-25T08:14:26;101356.00;;;9.30
20092;BMP180;10205;49.678;6.560;2024-01-25T08:16:53;101356.00;;;9.30
20092;BMP180;10205;49.678;6.560;2024-01-25T08:19:21;101357.00;;;9.30
20092;BMP180;10205;49.678;6.560;2024-01-25T08:21:48;101350.00;;;9.30
20092;BMP180;10205;49.678;6.560;2024-01-25T08:24:17;101355.00;;;9.30
20092;BMP180;10205;49.678;6.560;2024-01-25T08:26:44;101346.00;;;9.30
20092;BMP180;10205;49.678;6.560;2024-01-25T08:29:11;101351.00;;;9.30
20092;BMP180;10205;49.678;6.560;2024-01-25T08:31:38;101345.00;;;9.30
20092;BMP180;10205;49.678;6.560;2024-01-25T08:34:05;101351.00;;;9.30
20092;BMP180;10205;49.678;6.560;2024-01-25T08:36:32;101340.00;;;9.30
20092;BMP180;10205;49.678;6.560;2024-01-25T08:38:59;101345.00;;;9.30
20092;BMP180;10205;49.678;6.560;2024-01-25T08:41:28;101349.00;;;9.30
20092;BMP180;10205;49.678;6.560;2024-01-25T08:43:55;101350.00;;;9.30
20092;BMP180;10205;49.678;6.560;2024-01-25T08:46:22;101343.00;;;9.30
20092;BMP180;10205;49.678;6.560;2024-01-25T08:48:50;101349.00;;;9.30
20092;BMP180;10205;49.678;6.560;2024-01-25T08:51:17;101352.00;;;9.30
20092;BMP180;10205;49.678;6.560;2024-01-25T08:53:44;101362.00;;;9.30
20092;BMP180;10205;49.678;6.560;2024-01-25T08:56:11;101342.00;;;9.30
20092;BMP180;10205;49.678;6.560;2024-01-25T08:58:39;101350.00;;;9.30
20092;BMP180;10205;49.678;6.560;2024-01-25T09:01:07;101346.00;;;9.30
20092;BMP180;10205;49.678;6.560;2024-01-25T09:03:34;101347.00;;;9.30
20092;BMP180;10205;49.678;6.560;2024-01-25T09:06:01;101351.00;;;9.30
20092;BMP180;10205;49.678;6.560;2024-01-25T09:08:31;101352.00;;;9.30
20092;BMP180;10205;49.678;6.560;2024-01-25T09:10:58;101342.00;;;9.30
20092;BMP180;10205;49.678;6.560;2024-01-25T09:13:26;101345.00;;;9.30
20092;BMP180;10205;49.678;6.560;2024-01-25T09:15:54;101339.00;;;9.40
20092;BMP180;10205;49.678;6.560;2024-01-25T09:18:21;101339.00;;;9.40
20092;BMP180;10205;49.678;6.560;2024-01-25T09:20:48;101340.00;;;9.40
20092;BMP180;10205;49.678;6.560;2024-01-25T09:23:15;101339.00;;;9.40
20092;BMP180;10205;49.678;6.560;2024-01-25T09:25:43;101328.00;;;9.40
20092;BMP180;10205;49.678;6.560;2024-01-25T09:28:10;101335.00;;;9.40
20092;BMP180;10205;49.678;6.560;2024-01-25T09:30:38;101330.00;;;9.30
20092;BMP180;10205;49.678;6.560;2024-01-25T09:33:08;101337.00;;;9.40
20092;BMP180;10205;49.678;6.560;2024-01-25T09:35:36;101333.00;;;9.40
20092;BMP180;10205;49.678;6.560;2024-01-25T09:38:06;101334.00;;;9.50
20092;BMP180;10205;49.678;6.560;2024-01-25T09:40:33;101325.00;;;9.50
20092;BMP180;10205;49.678;6.560;2024-01-25T09:43:01;101329.00;;;9.50
20092;BMP180;10205;49.678;6.560;2024-01-25T09:45:31;101326.00;;;9.50
20092;BMP180;10205;49.678;6.560;2024-01-25T09:47:58;101344.00;;;9.60
20092;BMP180;10205;49.678;6.560;2024-01-25T09:50:27;101343.00;;;9.60
20092;BMP180;10205;49.678;6.560;2024-01-25T09:53:00;101339.00;;;9.60
20092;BMP180;10205;49.678;6.560;2024-01-25T09:55:27;101348.00;;;9.60
20092;BMP180;10205;49.678;6.560;2024-01-25T09:57:55;101357.00;;;9.70
20092;BMP180;10205;49.678;6.560;2024-01-25T10:00:23;101357.00;;;9.70
20092;BMP180;10205;49.678;6.560;2024-01-25T10:02:50;101358.00;;;9.80
20092;BMP180;10205;49.678;6.560;2024-01-25T10:05:18;101346.00;;;9.80
20092;BMP180;10205;49.678;6.560;2024-01-25T10:07:47;101358.00;;;9.90
20092;BMP180;10205;49.678;6.560;2024-01-25T10:10:17;101356.00;;;9.90
20092;BMP180;10205;49.678;6.560;2024-01-25T10:12:44;101352.00;;;10.00
20092;BMP180;10205;49.678;6.560;2024-01-25T10:15:11;101374.00;;;10.00
20092;BMP180;10205;49.678;6.560;2024-01-25T10:17:39;101370.00;;;10.00
20092;BMP180;10205;49.678;6.560;2024-01-25T10:20:08;101370.00;;;10.10
20092;BMP180;10205;49.678;6.560;2024-01-25T10:22:37;101358.00;;;10.10
20092;BMP180;10205;49.678;6.560;2024-01-25T10:25:12;101350.00;;;10.20
20092;BMP180;10205;49.678;6.560;2024-01-25T10:27:40;101347.00;;;10.30
20092;BMP180;10205;49.678;6.560;2024-01-25T10:30:11;101340.00;;;10.30
20092;BMP180;10205;49.678;6.560;2024-01-25T10:32:41;101341.00;;;10.40
20092;BMP180;10205;49.678;6.560;2024-01-25T10:35:10;101343.00;;;10.40
20092;BMP180;10205;49.678;6.560;2024-01-25T10:37:39;101341.00;;;10.50
20092;BMP180;10205;49.678;6.560;2024-01-25T10:40:11;101339.00;;;10.50
20092;BMP180;10205;49.678;6.560;2024-01-25T10:42:39;101329.00;;;10.60
20092;BMP180;10205;49.678;6.560;2024-01-25T10:45:08;101333.00;;;10.60
20092;BMP180;10205;49.678;6.560;2024-01-25T10:47:36;101350.00;;;10.70
20092;BMP180;10205;49.678;6.560;2024-01-25T10:50:05;101329.00;;;10.80
20092;BMP180;10205;49.678;6.560;2024-01-25T10:52:36;101337.00;;;10.80
20092;BMP180;10205;49.678;6.560;2024-01-25T10:55:04;101329.00;;;10.80
20092;BMP180;10205;49.678;6.560;2024-01-25T10:57:37;101332.00;;;10.90
20092;BMP180;10205;49.678;6.560;2024-01-25T11:00:09;101315.00;;;11.00
20092;BMP180;10205;49.678;6.560;2024-01-25T11:02:38;101321.00;;;11.00
20092;BMP180;10205;49.678;6.560;2024-01-25T11:05:09;101310.00;;;11.10
20092;BMP180;10205;49.678;6.560;2024-01-25T11:07:46;101318.00;;;11.20
20092;BMP180;10205;49.678;6.560;2024-01-25T11:10:16;101311.00;;;11.20
20092;BMP180;10205;49.678;6.560;2024-01-25T11:12:50;101296.00;;;11.20
20092;BMP180;10205;49.678;6.560;2024-01-25T11:15:21;101308.00;;;11.30
20092;BMP180;10205;49.678;6.560;2024-01-25T11:17:53;101297.00;;;11.30
20092;BMP180;10205;49.678;6.560;2024-01-25T11:20:22;101306.00;;;11.40
20092;BMP180;10205;49.678;6.560;2024-01-25T11:22:58;101299.00;;;11.40
20092;BMP180;10205;49.678;6.560;2024-01-25T11:25:30;101305.00;;;11.50
20092;BMP180;10205;49.678;6.560;2024-01-25T11:28:00;101298.00;;;11.50
20092;BMP180;10205;49.678;6.560;2024-01-25T11:30:30;101299.00;;;11.60
20092;BMP180;10205;49.678;6.560;2024-01-25T11:32:57;101299.00;;;11.60
20092;BMP180;10205;49.678;6.560;2024-01-25T11:35:24;101290.00;;;11.70
20092;BMP180;10205;49.678;6.560;2024-01-25T11:37:53;101285.00;;;11.70
20092;BMP180;10205;49.678;6.560;2024-01-25T11:40:20;101282.00;;;11.80
20092;BMP180;10205;49.678;6.560;2024-01-25T11:42:49;101272.00;;;11.80
20092;BMP180;10205;49.678;6.560;2024-01-25T11:45:18;101276.00;;;11.90
20092;BMP180;10205;49.678;6.560;2024-01-25T11:47:45;101262.00;;;11.90
20092;BMP180;10205;49.678;6.560;2024-01-25T11:50:13;101285.00;;;11.90
20092;BMP180;10205;49.678;6.560;2024-01-25T11:52:40;101267.00;;;11.90
20092;BMP180;10205;49.678;6.560;2024-01-25T11:55:09;101263.00;;;12.00
20092;BMP180;10205;49.678;6.560;2024-01-25T11:57:38;101260.00;;;12.00
20092;BMP180;10205;49.678;6.560;2024-01-25T12:00:09;101251.00;;;12.00
20092;BMP180;10205;49.678;6.560;2024-01-25T12:02:38;101249.00;;;12.00
20092;BMP180;10205;49.678;6.560;2024-01-25T12:05:07;101246.00;;;12.10
20092;BMP180;10205;49.678;6.560;2024-01-25T12:07:38;101248.00;;;12.10
20092;BMP180;10205;49.678;6.560;2024-01-25T12:10:07;101247.00;;;12.10
20092;BMP180;10205;49.678;6.560;2024-01-25T12:12:36;101247.00;;;12.10
20092;BMP180;10205;49.678;6.560;2024-01-25T12:15:06;101241.00;;;12.10
20092;BMP180;10205;49.678;6.560;2024-01-25T12:17:34;101233.00;;;12.20
20092;BMP180;10205;49.678;6.560;2024-01-25T12:20:08;101228.00;;;12.20
20092;BMP180;10205;49.678;6.560;2024-01-25T12:22:37;101221.00;;;12.20
20092;BMP180;10205;49.678;6.560;2024-01-25T12:25:08;101217.00;;;12.20
20092;BMP180;10205;49.678;6.560;2024-01-25T12:27:35;101222.00;;;12.20
20092;BMP180;10205;49.678;6.560;2024-01-25T12:30:04;101226.00;;;12.30
20092;BMP180;10205;49.678;6.560;2024-01-25T12:32:31;101216.00;;;12.30
20092;BMP180;10205;49.678;6.560;2024-01-25T12:35:00;101226.00;;;12.30
20092;BMP180;10205;49.678;6.560;2024-01-25T12:37:29;101232.00;;;12.30
20092;BMP180;10205;49.678;6.560;2024-01-25T12:39:56;101223.00;;;12.30
20092;BMP180;10205;49.678;6.560;2024-01-25T12:42:23;101215.00;;;12.40
20092;BMP180;10205;49.678;6.560;2024-01-25T12:44:53;101208.00;;;12.40
20092;BMP180;10205;49.678;6.560;2024-01-25T12:47:20;101192.00;;;12.40
20092;BMP180;10205;49.678;6.560;2024-01-25T12:49:47;101203.00;;;12.40
20092;BMP180;10205;49.678;6.560;2024-01-25T12:52:15;101203.00;;;12.50
20092;BMP180;10205;49.678;6.560;2024-01-25T12:54:44;101197.00;;;12.50
20092;BMP180;10205;49.678;6.560;2024-01-25T12:57:11;101198.00;;;12.50
20092;BMP180;10205;49.678;6.560;2024-01-25T12:59:38;101196.00;;;12.50
20092;BMP180;10205;49.678;6.560;2024-01-25T13:02:07;101192.00;;;12.50
20092;BMP180;10205;49.678;6.560;2024-01-25T13:04:34;101194.00;;;12.50
20092;BMP180;10205;49.678;6.560;2024-01-25T13:07:02;101199.00;;;12.50
20092;BMP180;10205;49.678;6.560;2024-01-25T13:09:29;101192.00;;;12.50
20092;BMP180;10205;49.678;6.560;2024-01-25T13:12:00;101186.00;;;12.60
20092;BMP180;10205;49.678;6.560;2024-01-25T13:14:28;101184.00;;;12.60
20092;BMP180;10205;49.678;6.560;2024-01-25T13:16:55;101184.00;;;12.60
20092;BMP180;10205;49.678;6.560;2024-01-25T13:19:26;101186.00;;;12.60
20092;BMP180;10205;49.678;6.560;2024-01-25T13:21:53;101177.00;;;12.60
20092;BMP180;10205;49.678;6.560;2024-01-25T13:24:21;101175.00;;;12.70
20092;BMP180;10205;49.678;6.560;2024-01-25T13:26:48;101175.00;;;12.70
20092;BMP180;10205;49.678;6.560;2024-01-25T13:29:16;101157.00;;;12.70
20092;BMP180;10205;49.678;6.560;2024-01-25T13:31:43;101161.00;;;12.70
20092;BMP180;10205;49.678;6.560;2024-01-25T13:34:10;101170.00;;;12.80
20092;BMP180;10205;49.678;6.560;2024-01-25T13:36:38;101164.00;;;12.80
20092;BMP180;10205;49.678;6.560;2024-01-25T13:39:05;101156.00;;;12.80
20092;BMP180;10205;49.678;6.560;2024-01-25T13:41:33;101150.00;;;12.80
20092;BMP180;10205;49.678;6.560;2024-01-25T13:44:00;101151.00;;;12.80
20092;BMP180;10205;49.678;6.560;2024-01-25T13:46:28;101139.00;;;12.80
20092;BMP180;10205;49.678;6.560;2024-01-25T13:48:55;101149.00;;;12.80
20092;BMP180;10205;49.678;6.560;2024-01-25T13:51:22;101138.00;;;12.80
20092;BMP180;10205;49.678;6.560;2024-01-25T13:53:50;101152.00;;;12.90
20092;BMP180;10205;49.678;6.560;2024-01-25T13:56:17;101152.00;;;12.90
20092;BMP180;10205;49.678;6.560;2024-01-25T13:58:44;101138.00;;;12.90
20092;BMP180;10205;49.678;6.560;2024-01-25T14:01:11;101136.00;;;12.90
20092;BMP180;10205;49.678;6.560;2024-01-25T14:03:40;101136.00;;;12.90